sensor_id;sensor_type;location;lat;lon;timestamp;P1;durP1;ratioP1;P2;durP2;ratioP2
58338;SDS011;68636;52.704;6.536;2023-12-28T00:01:15;5.25;;;1.55;;
58338;SDS011;68636;52.704;6.536;2023-12-28T00:03:41;6.55;;;1.83;;
58338;SDS011;68636;52.704;6.536;2023-12-28T00:06:07;3.50;;;1.63;;
58338;SDS011;68636;52.704;6.536;2023-12-28T00:08:33;6.33;;;1.77;;
58338;SDS011;68636;52.704;6.536;2023-12-28T00:10:59;7.18;;;2.05;;
58338;SDS011;68636;52.704;6.536;2023-12-28T00:13:25;6.03;;;1.80;;
58338;SDS011;68636;52.704;6.536;2023-12-28T00:15:51;5.78;;;1.98;;
58338;SDS011;68636;52.704;6.536;2023-12-28T00:18:17;8.85;;;2.50;;
58338;SDS011;68636;52.704;6.536;2023-12-28T00:20:43;3.65;;;1.58;;
58338;SDS011;68636;52.704;6.536;2023-12-28T00:23:09;5.63;;;2.25;;
58338;SDS011;68636;52.704;6.536;2023-12-28T00:25:36;4.05;;;1.77;;
58338;SDS011;68636;52.704;6.536;2023-12-28T00:28:02;5.00;;;1.75;;
58338;SDS011;68636;52.704;6.536;2023-12-28T00:30:28;5.20;;;1.90;;
58338;SDS011;68636;52.704;6.536;2023-12-28T00:32:54;4.85;;;2.05;;
58338;SDS011;68636;52.704;6.536;2023-12-28T00:35:20;4.07;;;1.52;;
58338;SDS011;68636;52.704;6.536;2023-12-28T00:37:47;4.70;;;1.85;;
58338;SDS011;68636;52.704;6.536;2023-12-28T00:40:13;7.35;;;2.00;;
58338;SDS011;68636;52.704;6.536;2023-12-28T00:42:40;5.68;;;1.80;;
58338;SDS011;68636;52.704;6.536;2023-12-28T00:45:06;3.80;;;1.50;;
58338;SDS011;68636;52.704;6.536;2023-12-28T00:47:33;6.47;;;2.25;;
58338;SDS011;68636;52.704;6.536;2023-12-28T00:49:59;8.43;;;2.08;;
58338;SDS011;68636;52.704;6.536;2023-12-28T00:52:25;6.57;;;1.90;;
58338;SDS011;68636;52.704;6.536;2023-12-28T00:54:51;4.50;;;2.25;;
58338;SDS011;68636;52.704;6.536;2023-12-28T00:57:17;4.75;;;2.03;;
58338;SDS011;68636;52.704;6.536;2023-12-28T00:59:43;5.97;;;1.90;;
58338;SDS011;68636;52.704;6.536;2023-12-28T01:02:09;7.28;;;2.00;;
58338;SDS011;68636;52.704;6.536;2023-12-28T01:04:35;3.90;;;1.80;;
58338;SDS011;68636;52.704;6.536;2023-12-28T01:07:01;4.65;;;1.90;;
58338;SDS011;68636;52.704;6.536;2023-12-28T01:09:31;4.95;;;2.08;;
58338;SDS011;68636;52.704;6.536;2023-12-28T01:12:00;5.78;;;2.03;;
58338;SDS011;68636;52.704;6.536;2023-12-28T01:14:26;4.80;;;1.88;;
58338;SDS011;68636;52.704;6.536;2023-12-28T01:16:52;5.80;;;2.00;;
58338;SDS011;68636;52.704;6.536;2023-12-28T01:19:18;4.27;;;1.93;;
58338;SDS011;68636;52.704;6.536;2023-12-28T01:21:44;6.90;;;2.03;;
58338;SDS011;68636;52.704;6.536;2023-12-28T01:24:10;4.82;;;1.83;;
58338;SDS011;68636;52.704;6.536;2023-12-28T01:26:37;4.97;;;2.00;;
58338;SDS011;68636;52.704;6.536;2023-12-28T01:29:03;6.70;;;2.13;;
58338;SDS011;68636;52.704;6.536;2023-12-28T01:31:29;6.22;;;2.30;;
58338;SDS011;68636;52.704;6.536;2023-12-28T01:33:55;6.07;;;2.30;;
58338;SDS011;68636;52.704;6.536;2023-12-28T01:36:22;8.15;;;2.05;;
58338;SDS011;68636;52.704;6.536;2023-12-28T01:38:48;6.03;;;2.10;;
58338;SDS011;68636;52.704;6.536;2023-12-28T01:41:14;6.05;;;2.15;;
58338;SDS011;68636;52.704;6.536;2023-12-28T01:43:41;6.13;;;2.50;;
58338;SDS011;68636;52.704;6.536;2023-12-28T01:46:08;7.43;;;2.10;;
58338;SDS011;68636;52.704;6.536;2023-12-28T01:48:36;5.18;;;1.90;;
58338;SDS011;68636;52.704;6.536;2023-12-28T01:51:02;6.25;;;2.35;;
58338;SDS011;68636;52.704;6.536;2023-12-28T01:53:29;6.63;;;2.20;;
58338;SDS011;68636;52.704;6.536;2023-12-28T01:55:55;6.45;;;2.20;;
58338;SDS011;68636;52.704;6.536;2023-12-28T01:58:22;6.23;;;2.40;;
58338;SDS011;68636;52.704;6.536;2023-12-28T02:00:49;6.93;;;2.58;;
58338;SDS011;68636;52.704;6.536;2023-12-28T02:03:15;7.45;;;2.33;;
58338;SDS011;68636;52.704;6.536;2023-12-28T02:05:41;4.87;;;2.07;;
58338;SDS011;68636;52.704;6.536;2023-12-28T02:08:07;8.13;;;2.60;;
58338;SDS011;68636;52.704;6.536;2023-12-28T02:10:33;8.00;;;2.63;;
58338;SDS011;68636;52.704;6.536;2023-12-28T02:12:59;7.82;;;2.35;;
58338;SDS011;68636;52.704;6.536;2023-12-28T02:15:25;8.90;;;2.40;;
58338;SDS011;68636;52.704;6.536;2023-12-28T02:17:56;8.20;;;2.63;;
58338;SDS011;68636;52.704;6.536;2023-12-28T02:20:25;6.72;;;2.38;;
58338;SDS011;68636;52.704;6.536;2023-12-28T02:22:51;12.02;;;2.22;;
58338;SDS011;68636;52.704;6.536;2023-12-28T02:25:18;6.78;;;2.20;;
58338;SDS011;68636;52.704;6.536;2023-12-28T02:27:44;8.40;;;2.22;;
58338;SDS011;68636;52.704;6.536;2023-12-28T02:30:15;9.13;;;2.53;;
58338;SDS011;68636;52.704;6.536;2023-12-28T02:35:37;6.20;;;2.50;;
58338;SDS011;68636;52.704;6.536;2023-12-28T02:38:06;10.27;;;1.95;;
58338;SDS011;68636;52.704;6.536;2023-12-28T02:40:38;9.10;;;2.58;;
58338;SDS011;68636;52.704;6.536;2023-12-28T02:43:08;9.23;;;2.42;;
58338;SDS011;68636;52.704;6.536;2023-12-28T02:45:34;9.73;;;2.67;;
58338;SDS011;68636;52.704;6.536;2023-12-28T02:48:01;7.40;;;2.27;;
58338;SDS011;68636;52.704;6.536;2023-12-28T02:50:27;5.90;;;1.80;;
58338;SDS011;68636;52.704;6.536;2023-12-28T02:52:55;8.02;;;2.33;;
58338;SDS011;68636;52.704;6.536;2023-12-28T02:55:21;6.23;;;2.60;;
58338;SDS011;68636;52.704;6.536;2023-12-28T02:57:49;8.50;;;2.08;;
58338;SDS011;68636;52.704;6.536;2023-12-28T03:02:41;7.60;;;2.13;;
58338;SDS011;68636;52.704;6.536;2023-12-28T03:05:07;6.35;;;2.00;;
58338;SDS011;68636;52.704;6.536;2023-12-28T03:07:34;9.60;;;2.17;;
58338;SDS011;68636;52.704;6.536;2023-12-28T03:10:00;8.83;;;1.67;;
58338;SDS011;68636;52.704;6.536;2023-12-28T03:12:27;7.77;;;2.10;;
58338;SDS011;68636;52.704;6.536;2023-12-28T03:14:53;8.30;;;1.92;;
58338;SDS011;68636;52.704;6.536;2023-12-28T03:17:19;6.50;;;1.73;;
58338;SDS011;68636;52.704;6.536;2023-12-28T03:19:45;9.02;;;1.83;;
58338;SDS011;68636;52.704;6.536;2023-12-28T03:22:11;6.40;;;1.50;;
58338;SDS011;68636;52.704;6.536;2023-12-28T03:24:38;4.80;;;1.25;;
58338;SDS011;68636;52.704;6.536;2023-12-28T03:27:04;6.05;;;1.40;;
58338;SDS011;68636;52.704;6.536;2023-12-28T03:29:30;7.50;;;1.40;;
58338;SDS011;68636;52.704;6.536;2023-12-28T03:31:56;5.10;;;1.48;;
58338;SDS011;68636;52.704;6.536;2023-12-28T03:36:51;6.22;;;1.42;;
58338;SDS011;68636;52.704;6.536;2023-12-28T03:39:18;8.98;;;1.67;;
58338;SDS011;68636;52.704;6.536;2023-12-28T03:41:44;6.97;;;1.73;;
58338;SDS011;68636;52.704;6.536;2023-12-28T03:44:10;4.93;;;1.20;;
58338;SDS011;68636;52.704;6.536;2023-12-28T03:46:36;6.13;;;1.40;;
58338;SDS011;68636;52.704;6.536;2023-12-28T03:49:02;10.57;;;1.70;;
58338;SDS011;68636;52.704;6.536;2023-12-28T03:51:28;7.45;;;1.38;;
58338;SDS011;68636;52.704;6.536;2023-12-28T03:53:54;6.57;;;1.48;;
58338;SDS011;68636;52.704;6.536;2023-12-28T03:56:21;5.03;;;1.20;;
58338;SDS011;68636;52.704;6.536;2023-12-28T03:58:48;9.27;;;1.35;;
58338;SDS011;68636;52.704;6.536;2023-12-28T04:01:14;4.90;;;1.00;;
58338;SDS011;68636;52.704;6.536;2023-12-28T04:03:40;6.13;;;1.25;;
58338;SDS011;68636;52.704;6.536;2023-12-28T04:06:06;6.57;;;1.17;;
58338;SDS011;68636;52.704;6.536;2023-12-28T04:08:32;6.22;;;1.20;;
58338;SDS011;68636;52.704;6.536;2023-12-28T04:10:58;4.30;;;1.10;;
58338;SDS011;68636;52.704;6.536;2023-12-28T04:13:24;5.53;;;0.90;;
58338;SDS011;68636;52.704;6.536;2023-12-28T04:15:50;6.95;;;1.10;;
58338;SDS011;68636;52.704;6.536;2023-12-28T04:18:16;5.25;;;1.23;;
58338;SDS011;68636;52.704;6.536;2023-12-28T04:20:43;8.23;;;1.38;;
58338;SDS011;68636;52.704;6.536;2023-12-28T04:23:11;12.00;;;1.40;;
58338;SDS011;68636;52.704;6.536;2023-12-28T04:25:37;5.40;;;1.02;;
58338;SDS011;68636;52.704;6.536;2023-12-28T04:28:04;6.10;;;1.10;;
58338;SDS011;68636;52.704;6.536;2023-12-28T04:30:30;7.93;;;1.30;;
58338;SDS011;68636;52.704;6.536;2023-12-28T04:32:56;11.60;;;0.90;;
58338;SDS011;68636;52.704;6.536;2023-12-28T04:35:22;6.40;;;1.17;;
58338;SDS011;68636;52.704;6.536;2023-12-28T04:37:48;5.85;;;1.08;;
58338;SDS011;68636;52.704;6.536;2023-12-28T04:40:14;9.45;;;1.23;;
58338;SDS011;68636;52.704;6.536;2023-12-28T04:42:42;10.25;;;1.10;;
58338;SDS011;68636;52.704;6.536;2023-12-28T04:45:08;9.65;;;1.40;;
58338;SDS011;68636;52.704;6.536;2023-12-28T04:47:35;7.85;;;1.00;;
58338;SDS011;68636;52.704;6.536;2023-12-28T04:50:02;9.32;;;1.05;;
58338;SDS011;68636;52.704;6.536;2023-12-28T04:52:28;9.20;;;1.20;;
58338;SDS011;68636;52.704;6.536;2023-12-28T04:54:54;5.85;;;1.05;;
58338;SDS011;68636;52.704;6.536;2023-12-28T04:57:20;10.10;;;1.92;;
58338;SDS011;68636;52.704;6.536;2023-12-28T04:59:49;9.38;;;1.10;;
58338;SDS011;68636;52.704;6.536;2023-12-28T05:02:15;6.38;;;0.93;;
58338;SDS011;68636;52.704;6.536;2023-12-28T05:04:41;4.93;;;0.83;;
58338;SDS011;68636;52.704;6.536;2023-12-28T05:07:08;7.07;;;0.80;;
58338;SDS011;68636;52.704;6.536;2023-12-28T05:09:34;7.88;;;1.40;;
58338;SDS011;68636;52.704;6.536;2023-12-28T05:12:00;6.47;;;1.35;;
58338;SDS011;68636;52.704;6.536;2023-12-28T05:14:26;9.57;;;1.23;;
58338;SDS011;68636;52.704;6.536;2023-12-28T05:16:52;7.82;;;1.00;;
58338;SDS011;68636;52.704;6.536;2023-12-28T05:19:18;8.30;;;1.30;;
58338;SDS011;68636;52.704;6.536;2023-12-28T05:21:44;8.68;;;1.27;;
58338;SDS011;68636;52.704;6.536;2023-12-28T05:24:11;9.52;;;1.30;;
58338;SDS011;68636;52.704;6.536;2023-12-28T05:26:37;7.70;;;1.23;;
58338;SDS011;68636;52.704;6.536;2023-12-28T05:29:03;7.35;;;1.33;;
58338;SDS011;68636;52.704;6.536;2023-12-28T05:31:29;7.80;;;1.27;;
58338;SDS011;68636;52.704;6.536;2023-12-28T05:33:55;9.15;;;0.93;;
58338;SDS011;68636;52.704;6.536;2023-12-28T05:36:23;9.63;;;1.30;;
58338;SDS011;68636;52.704;6.536;2023-12-28T05:38:49;9.07;;;0.95;;
58338;SDS011;68636;52.704;6.536;2023-12-28T05:41:15;11.93;;;1.60;;
58338;SDS011;68636;52.704;6.536;2023-12-28T05:43:42;11.10;;;1.13;;
58338;SDS011;68636;52.704;6.536;2023-12-28T05:46:08;8.27;;;0.90;;
58338;SDS011;68636;52.704;6.536;2023-12-28T05:48:34;10.57;;;1.50;;
58338;SDS011;68636;52.704;6.536;2023-12-28T05:51:00;9.55;;;1.55;;
58338;SDS011;68636;52.704;6.536;2023-12-28T05:53:26;10.88;;;1.38;;
58338;SDS011;68636;52.704;6.536;2023-12-28T05:55:54;13.82;;;1.35;;
58338;SDS011;68636;52.704;6.536;2023-12-28T05:58:20;5.43;;;0.85;;
58338;SDS011;68636;52.704;6.536;2023-12-28T06:00:47;8.32;;;1.10;;
58338;SDS011;68636;52.704;6.536;2023-12-28T06:03:13;8.10;;;1.00;;
58338;SDS011;68636;52.704;6.536;2023-12-28T06:05:39;8.10;;;1.25;;
58338;SDS011;68636;52.704;6.536;2023-12-28T06:08:06;12.40;;;1.20;;
58338;SDS011;68636;52.704;6.536;2023-12-28T06:10:32;9.52;;;1.65;;
58338;SDS011;68636;52.704;6.536;2023-12-28T06:12:58;10.75;;;1.33;;
58338;SDS011;68636;52.704;6.536;2023-12-28T06:15:24;8.38;;;0.88;;
58338;SDS011;68636;52.704;6.536;2023-12-28T06:17:50;9.35;;;1.00;;
58338;SDS011;68636;52.704;6.536;2023-12-28T06:20:17;13.38;;;1.65;;
58338;SDS011;68636;52.704;6.536;2023-12-28T06:22:44;9.95;;;1.17;;
58338;SDS011;68636;52.704;6.536;2023-12-28T06:25:13;9.93;;;1.13;;
58338;SDS011;68636;52.704;6.536;2023-12-28T06:27:40;10.45;;;0.80;;
58338;SDS011;68636;52.704;6.536;2023-12-28T06:30:06;11.17;;;1.20;;
58338;SDS011;68636;52.704;6.536;2023-12-28T06:32:32;13.90;;;0.93;;
58338;SDS011;68636;52.704;6.536;2023-12-28T06:34:58;11.63;;;1.02;;
58338;SDS011;68636;52.704;6.536;2023-12-28T06:37:24;10.32;;;1.00;;
58338;SDS011;68636;52.704;6.536;2023-12-28T06:39:51;8.93;;;1.00;;
58338;SDS011;68636;52.704;6.536;2023-12-28T06:42:17;13.13;;;1.35;;
58338;SDS011;68636;52.704;6.536;2023-12-28T06:44:43;5.20;;;0.70;;
58338;SDS011;68636;52.704;6.536;2023-12-28T06:47:09;9.95;;;1.50;;
58338;SDS011;68636;52.704;6.536;2023-12-28T06:49:35;8.63;;;0.95;;
58338;SDS011;68636;52.704;6.536;2023-12-28T06:52:01;15.00;;;1.77;;
58338;SDS011;68636;52.704;6.536;2023-12-28T06:54:27;10.68;;;0.95;;
58338;SDS011;68636;52.704;6.536;2023-12-28T06:56:53;11.52;;;1.10;;
58338;SDS011;68636;52.704;6.536;2023-12-28T06:59:21;11.52;;;1.00;;
58338;SDS011;68636;52.704;6.536;2023-12-28T07:01:47;9.52;;;1.13;;
58338;SDS011;68636;52.704;6.536;2023-12-28T07:04:14;9.30;;;0.90;;
58338;SDS011;68636;52.704;6.536;2023-12-28T07:06:41;11.57;;;1.05;;
58338;SDS011;68636;52.704;6.536;2023-12-28T07:09:07;8.68;;;1.30;;
58338;SDS011;68636;52.704;6.536;2023-12-28T07:11:33;11.48;;;1.23;;
58338;SDS011;68636;52.704;6.536;2023-12-28T07:13:59;12.55;;;0.98;;
58338;SDS011;68636;52.704;6.536;2023-12-28T07:16:25;11.23;;;1.00;;
58338;SDS011;68636;52.704;6.536;2023-12-28T07:18:51;10.75;;;0.95;;
58338;SDS011;68636;52.704;6.536;2023-12-28T07:21:18;9.57;;;1.02;;
58338;SDS011;68636;52.704;6.536;2023-12-28T07:23:44;8.90;;;0.98;;
58338;SDS011;68636;52.704;6.536;2023-12-28T07:26:14;11.07;;;1.10;;
58338;SDS011;68636;52.704;6.536;2023-12-28T07:28:40;13.93;;;1.27;;
58338;SDS011;68636;52.704;6.536;2023-12-28T07:31:08;13.27;;;1.20;;
58338;SDS011;68636;52.704;6.536;2023-12-28T07:33:34;10.45;;;1.23;;
58338;SDS011;68636;52.704;6.536;2023-12-28T07:36:00;12.98;;;0.95;;
58338;SDS011;68636;52.704;6.536;2023-12-28T07:38:31;14.80;;;2.28;;
58338;SDS011;68636;52.704;6.536;2023-12-28T07:40:57;9.07;;;1.33;;
58338;SDS011;68636;52.704;6.536;2023-12-28T07:43:23;16.40;;;1.23;;
58338;SDS011;68636;52.704;6.536;2023-12-28T07:45:50;14.65;;;1.52;;
58338;SDS011;68636;52.704;6.536;2023-12-28T07:48:16;20.58;;;1.80;;
58338;SDS011;68636;52.704;6.536;2023-12-28T07:50:42;11.57;;;0.90;;
58338;SDS011;68636;52.704;6.536;2023-12-28T07:53:08;12.20;;;1.92;;
58338;SDS011;68636;52.704;6.536;2023-12-28T07:55:34;11.00;;;1.10;;
58338;SDS011;68636;52.704;6.536;2023-12-28T07:58:00;12.50;;;1.33;;
58338;SDS011;68636;52.704;6.536;2023-12-28T08:00:26;12.95;;;1.25;;
58338;SDS011;68636;52.704;6.536;2023-12-28T08:02:52;13.32;;;1.55;;
58338;SDS011;68636;52.704;6.536;2023-12-28T08:05:18;12.38;;;1.63;;
58338;SDS011;68636;52.704;6.536;2023-12-28T08:07:44;10.90;;;1.77;;
58338;SDS011;68636;52.704;6.536;2023-12-28T08:10:10;19.55;;;1.60;;
58338;SDS011;68636;52.704;6.536;2023-12-28T08:12:37;14.73;;;2.13;;
58338;SDS011;68636;52.704;6.536;2023-12-28T08:15:03;12.07;;;1.23;;
58338;SDS011;68636;52.704;6.536;2023-12-28T08:17:29;14.20;;;1.40;;
58338;SDS011;68636;52.704;6.536;2023-12-28T08:19:55;15.02;;;1.48;;
58338;SDS011;68636;52.704;6.536;2023-12-28T08:22:21;11.63;;;1.42;;
58338;SDS011;68636;52.704;6.536;2023-12-28T08:24:47;16.90;;;1.70;;
58338;SDS011;68636;52.704;6.536;2023-12-28T08:27:13;14.40;;;1.15;;
58338;SDS011;68636;52.704;6.536;2023-12-28T08:29:40;14.18;;;2.28;;
58338;SDS011;68636;52.704;6.536;2023-12-28T08:34:33;9.87;;;1.20;;
58338;SDS011;68636;52.704;6.536;2023-12-28T08:36:59;13.77;;;1.20;;
58338;SDS011;68636;52.704;6.536;2023-12-28T08:39:25;19.13;;;1.40;;
58338;SDS011;68636;52.704;6.536;2023-12-28T08:41:51;17.00;;;2.05;;
58338;SDS011;68636;52.704;6.536;2023-12-28T08:44:17;12.30;;;1.23;;
58338;SDS011;68636;52.704;6.536;2023-12-28T08:46:43;16.90;;;1.80;;
58338;SDS011;68636;52.704;6.536;2023-12-28T08:49:09;14.00;;;1.70;;
58338;SDS011;68636;52.704;6.536;2023-12-28T08:51:35;17.42;;;2.33;;
58338;SDS011;68636;52.704;6.536;2023-12-28T08:54:01;17.33;;;1.63;;
58338;SDS011;68636;52.704;6.536;2023-12-28T08:56:27;15.52;;;1.35;;
58338;SDS011;68636;52.704;6.536;2023-12-28T08:58:54;15.05;;;1.23;;
58338;SDS011;68636;52.704;6.536;2023-12-28T09:01:21;13.07;;;0.93;;
58338;SDS011;68636;52.704;6.536;2023-12-28T09:03:48;19.80;;;2.00;;
58338;SDS011;68636;52.704;6.536;2023-12-28T09:06:14;17.98;;;1.60;;
58338;SDS011;68636;52.704;6.536;2023-12-28T09:08:42;12.93;;;1.30;;
58338;SDS011;68636;52.704;6.536;2023-12-28T09:11:12;17.95;;;1.52;;
58338;SDS011;68636;52.704;6.536;2023-12-28T09:13:38;11.43;;;1.88;;
58338;SDS011;68636;52.704;6.536;2023-12-28T09:16:05;13.90;;;1.70;;
58338;SDS011;68636;52.704;6.536;2023-12-28T09:18:31;10.43;;;1.38;;
58338;SDS011;68636;52.704;6.536;2023-12-28T09:20:57;16.30;;;2.35;;
58338;SDS011;68636;52.704;6.536;2023-12-28T09:23:23;18.42;;;1.83;;
58338;SDS011;68636;52.704;6.536;2023-12-28T09:25:49;9.90;;;1.10;;
58338;SDS011;68636;52.704;6.536;2023-12-28T09:28:15;13.82;;;1.20;;
58338;SDS011;68636;52.704;6.536;2023-12-28T09:30:41;15.90;;;1.35;;
58338;SDS011;68636;52.704;6.536;2023-12-28T09:33:07;11.40;;;1.10;;
58338;SDS011;68636;52.704;6.536;2023-12-28T09:35:33;15.90;;;1.48;;
58338;SDS011;68636;52.704;6.536;2023-12-28T09:40:27;15.85;;;1.80;;
58338;SDS011;68636;52.704;6.536;2023-12-28T09:45:38;11.98;;;1.50;;
58338;SDS011;68636;52.704;6.536;2023-12-28T09:48:05;16.17;;;1.73;;
58338;SDS011;68636;52.704;6.536;2023-12-28T09:52:57;17.70;;;2.17;;
58338;SDS011;68636;52.704;6.536;2023-12-28T09:55:24;16.55;;;1.38;;
58338;SDS011;68636;52.704;6.536;2023-12-28T09:57:53;15.35;;;2.55;;
58338;SDS011;68636;52.704;6.536;2023-12-28T10:00:20;8.95;;;1.45;;
58338;SDS011;68636;52.704;6.536;2023-12-28T10:02:47;14.75;;;1.88;;
58338;SDS011;68636;52.704;6.536;2023-12-28T10:05:13;17.05;;;2.83;;
58338;SDS011;68636;52.704;6.536;2023-12-28T10:07:40;17.80;;;2.03;;
58338;SDS011;68636;52.704;6.536;2023-12-28T10:10:07;11.85;;;1.42;;
58338;SDS011;68636;52.704;6.536;2023-12-28T10:12:34;16.15;;;1.58;;
58338;SDS011;68636;52.704;6.536;2023-12-28T10:15:00;15.82;;;1.85;;
58338;SDS011;68636;52.704;6.536;2023-12-28T10:17:26;14.93;;;2.10;;
58338;SDS011;68636;52.704;6.536;2023-12-28T10:19:52;12.55;;;1.20;;
58338;SDS011;68636;52.704;6.536;2023-12-28T10:22:20;9.73;;;1.08;;
58338;SDS011;68636;52.704;6.536;2023-12-28T10:24:46;17.15;;;1.73;;
58338;SDS011;68636;52.704;6.536;2023-12-28T10:27:16;15.48;;;1.83;;
58338;SDS011;68636;52.704;6.536;2023-12-28T10:29:42;14.43;;;1.35;;
58338;SDS011;68636;52.704;6.536;2023-12-28T10:32:08;20.67;;;2.00;;
58338;SDS011;68636;52.704;6.536;2023-12-28T10:34:34;11.20;;;1.98;;
58338;SDS011;68636;52.704;6.536;2023-12-28T10:37:00;18.35;;;1.67;;
58338;SDS011;68636;52.704;6.536;2023-12-28T10:39:27;18.75;;;2.25;;
58338;SDS011;68636;52.704;6.536;2023-12-28T10:41:58;13.45;;;1.63;;
58338;SDS011;68636;52.704;6.536;2023-12-28T10:44:26;17.30;;;1.80;;
58338;SDS011;68636;52.704;6.536;2023-12-28T10:46:55;15.48;;;1.63;;
58338;SDS011;68636;52.704;6.536;2023-12-28T10:49:22;14.00;;;2.28;;
58338;SDS011;68636;52.704;6.536;2023-12-28T10:51:50;12.30;;;1.17;;
58338;SDS011;68636;52.704;6.536;2023-12-28T10:54:52;16.02;;;1.30;;
58338;SDS011;68636;52.704;6.536;2023-12-28T11:00:04;20.15;;;2.10;;
58338;SDS011;68636;52.704;6.536;2023-12-28T11:02:38;15.10;;;1.67;;
58338;SDS011;68636;52.704;6.536;2023-12-28T11:05:05;16.00;;;1.60;;
58338;SDS011;68636;52.704;6.536;2023-12-28T11:07:31;12.60;;;1.20;;
58338;SDS011;68636;52.704;6.536;2023-12-28T11:10:02;15.90;;;1.63;;
58338;SDS011;68636;52.704;6.536;2023-12-28T11:12:30;14.13;;;1.10;;
58338;SDS011;68636;52.704;6.536;2023-12-28T11:14:56;10.03;;;1.10;;
58338;SDS011;68636;52.704;6.536;2023-12-28T11:17:23;18.08;;;1.35;;
58338;SDS011;68636;52.704;6.536;2023-12-28T11:19:52;10.00;;;2.03;;
58338;SDS011;68636;52.704;6.536;2023-12-28T11:22:19;15.13;;;1.33;;
58338;SDS011;68636;52.704;6.536;2023-12-28T11:24:46;11.68;;;1.33;;
58338;SDS011;68636;52.704;6.536;2023-12-28T11:27:12;15.30;;;1.25;;
58338;SDS011;68636;52.704;6.536;2023-12-28T11:29:38;12.90;;;1.50;;
58338;SDS011;68636;52.704;6.536;2023-12-28T11:32:04;12.93;;;1.53;;
58338;SDS011;68636;52.704;6.536;2023-12-28T11:34:31;10.73;;;1.13;;
58338;SDS011;68636;52.704;6.536;2023-12-28T11:37:04;7.38;;;1.02;;
58338;SDS011;68636;52.704;6.536;2023-12-28T11:39:34;16.58;;;1.73;;
58338;SDS011;68636;52.704;6.536;2023-12-28T11:42:01;14.57;;;1.30;;
58338;SDS011;68636;52.704;6.536;2023-12-28T11:44:31;15.70;;;1.73;;
58338;SDS011;68636;52.704;6.536;2023-12-28T11:46:57;22.80;;;1.70;;
58338;SDS011;68636;52.704;6.536;2023-12-28T11:49:26;13.88;;;2.72;;
58338;SDS011;68636;52.704;6.536;2023-12-28T11:51:56;11.68;;;1.42;;
58338;SDS011;68636;52.704;6.536;2023-12-28T11:54:23;16.75;;;1.85;;
58338;SDS011;68636;52.704;6.536;2023-12-28T11:56:50;13.13;;;1.50;;
58338;SDS011;68636;52.704;6.536;2023-12-28T11:59:16;18.03;;;1.60;;
58338;SDS011;68636;52.704;6.536;2023-12-28T12:01:42;15.63;;;1.75;;
58338;SDS011;68636;52.704;6.536;2023-12-28T12:04:08;13.30;;;1.80;;
58338;SDS011;68636;52.704;6.536;2023-12-28T12:06:34;15.43;;;1.42;;
58338;SDS011;68636;52.704;6.536;2023-12-28T12:09:01;16.08;;;1.50;;
58338;SDS011;68636;52.704;6.536;2023-12-28T12:11:27;17.52;;;1.40;;
58338;SDS011;68636;52.704;6.536;2023-12-28T12:13:53;14.15;;;1.83;;
58338;SDS011;68636;52.704;6.536;2023-12-28T12:16:20;15.80;;;1.30;;
58338;SDS011;68636;52.704;6.536;2023-12-28T12:18:46;15.18;;;1.90;;
58338;SDS011;68636;52.704;6.536;2023-12-28T12:21:12;13.10;;;1.60;;
58338;SDS011;68636;52.704;6.536;2023-12-28T12:23:38;17.33;;;1.63;;
58338;SDS011;68636;52.704;6.536;2023-12-28T12:26:05;15.63;;;1.58;;
58338;SDS011;68636;52.704;6.536;2023-12-28T12:28:31;15.82;;;1.80;;
58338;SDS011;68636;52.704;6.536;2023-12-28T12:30:58;17.65;;;2.50;;
58338;SDS011;68636;52.704;6.536;2023-12-28T12:33:26;13.80;;;1.17;;
58338;SDS011;68636;52.704;6.536;2023-12-28T12:35:53;15.05;;;1.65;;
58338;SDS011;68636;52.704;6.536;2023-12-28T12:38:19;22.38;;;2.47;;
58338;SDS011;68636;52.704;6.536;2023-12-28T12:40:45;14.07;;;1.10;;
58338;SDS011;68636;52.704;6.536;2023-12-28T12:43:11;13.52;;;1.92;;
58338;SDS011;68636;52.704;6.536;2023-12-28T12:45:37;16.95;;;2.30;;
58338;SDS011;68636;52.704;6.536;2023-12-28T12:48:04;15.32;;;1.80;;
58338;SDS011;68636;52.704;6.536;2023-12-28T12:50:33;26.10;;;2.10;;
58338;SDS011;68636;52.704;6.536;2023-12-28T12:53:00;16.13;;;2.15;;
58338;SDS011;68636;52.704;6.536;2023-12-28T12:55:26;16.05;;;1.70;;
58338;SDS011;68636;52.704;6.536;2023-12-28T12:57:53;14.18;;;1.73;;
58338;SDS011;68636;52.704;6.536;2023-12-28T13:00:21;15.95;;;2.33;;
58338;SDS011;68636;52.704;6.536;2023-12-28T13:02:49;12.88;;;1.45;;
58338;SDS011;68636;52.704;6.536;2023-12-28T13:05:17;15.93;;;1.50;;
58338;SDS011;68636;52.704;6.536;2023-12-28T13:10:09;12.93;;;1.60;;
58338;SDS011;68636;52.704;6.536;2023-12-28T13:12:36;20.98;;;1.67;;
58338;SDS011;68636;52.704;6.536;2023-12-28T13:15:02;15.02;;;1.35;;
58338;SDS011;68636;52.704;6.536;2023-12-28T13:17:28;15.73;;;2.08;;
58338;SDS011;68636;52.704;6.536;2023-12-28T13:19:54;14.23;;;1.75;;
58338;SDS011;68636;52.704;6.536;2023-12-28T13:22:20;17.42;;;1.60;;
58338;SDS011;68636;52.704;6.536;2023-12-28T13:24:46;13.07;;;1.27;;
58338;SDS011;68636;52.704;6.536;2023-12-28T13:27:13;21.83;;;2.20;;
58338;SDS011;68636;52.704;6.536;2023-12-28T13:29:39;19.05;;;1.92;;
58338;SDS011;68636;52.704;6.536;2023-12-28T13:32:06;23.20;;;1.97;;
58338;SDS011;68636;52.704;6.536;2023-12-28T13:34:32;19.47;;;1.50;;
58338;SDS011;68636;52.704;6.536;2023-12-28T13:36:58;20.13;;;1.97;;
58338;SDS011;68636;52.704;6.536;2023-12-28T13:39:26;13.00;;;1.70;;
58338;SDS011;68636;52.704;6.536;2023-12-28T13:41:53;18.35;;;2.08;;
58338;SDS011;68636;52.704;6.536;2023-12-28T13:44:20;17.33;;;2.08;;
58338;SDS011;68636;52.704;6.536;2023-12-28T13:46:46;13.75;;;1.77;;
58338;SDS011;68636;52.704;6.536;2023-12-28T13:49:14;16.67;;;1.75;;
58338;SDS011;68636;52.704;6.536;2023-12-28T13:51:40;18.48;;;1.85;;
58338;SDS011;68636;52.704;6.536;2023-12-28T13:54:06;17.90;;;2.10;;
58338;SDS011;68636;52.704;6.536;2023-12-28T13:56:32;18.70;;;1.88;;
58338;SDS011;68636;52.704;6.536;2023-12-28T13:58:58;17.80;;;2.58;;
58338;SDS011;68636;52.704;6.536;2023-12-28T14:01:24;16.33;;;1.45;;
58338;SDS011;68636;52.704;6.536;2023-12-28T14:03:51;13.45;;;1.83;;
58338;SDS011;68636;52.704;6.536;2023-12-28T14:06:17;17.88;;;1.67;;
58338;SDS011;68636;52.704;6.536;2023-12-28T14:08:44;19.90;;;1.73;;
58338;SDS011;68636;52.704;6.536;2023-12-28T14:11:10;14.73;;;1.80;;
58338;SDS011;68636;52.704;6.536;2023-12-28T14:13:36;16.08;;;2.30;;
58338;SDS011;68636;52.704;6.536;2023-12-28T14:16:03;13.65;;;1.50;;
58338;SDS011;68636;52.704;6.536;2023-12-28T14:20:55;14.13;;;1.23;;
58338;SDS011;68636;52.704;6.536;2023-12-28T14:23:21;12.10;;;1.63;;
58338;SDS011;68636;52.704;6.536;2023-12-28T14:25:48;14.10;;;1.27;;
58338;SDS011;68636;52.704;6.536;2023-12-28T14:28:18;16.52;;;1.50;;
58338;SDS011;68636;52.704;6.536;2023-12-28T14:30:45;17.42;;;1.73;;
58338;SDS011;68636;52.704;6.536;2023-12-28T14:33:11;19.48;;;1.60;;
58338;SDS011;68636;52.704;6.536;2023-12-28T14:35:37;15.38;;;1.67;;
58338;SDS011;68636;52.704;6.536;2023-12-28T14:38:04;13.73;;;1.35;;
58338;SDS011;68636;52.704;6.536;2023-12-28T14:40:33;17.00;;;1.83;;
58338;SDS011;68636;52.704;6.536;2023-12-28T14:42:59;13.23;;;1.07;;
58338;SDS011;68636;52.704;6.536;2023-12-28T14:45:25;12.05;;;1.20;;
58338;SDS011;68636;52.704;6.536;2023-12-28T14:47:51;16.45;;;1.88;;
58338;SDS011;68636;52.704;6.536;2023-12-28T14:50:17;19.60;;;2.45;;
58338;SDS011;68636;52.704;6.536;2023-12-28T14:52:43;14.52;;;2.17;;
58338;SDS011;68636;52.704;6.536;2023-12-28T14:55:09;17.92;;;2.22;;
58338;SDS011;68636;52.704;6.536;2023-12-28T14:57:36;12.90;;;1.27;;
58338;SDS011;68636;52.704;6.536;2023-12-28T15:00:03;14.02;;;1.70;;
58338;SDS011;68636;52.704;6.536;2023-12-28T15:02:29;13.50;;;1.30;;